Time;durP1;ratioP1;P1;durP2;ratioP2;P2;SDS_P1;SDS_P2;PMS_P1;PMS_P2;Temp;Humidity;BMP_temperature;BMP_pressure;BME280_temperature;BME280_humidity;BME280_pressure;Samples;Min_cycle;Max_cycle;Signal;HPM_P1;HPM_P2
2023/09/27 00:00:56;;;;;;;7.63;5.40;;;;;;;;;;5014469;28;20033;-70
2023/09/27 00:03:22;;;;;;;11.02;5.75;;;;;;;;;;5014626;28;20424;-70
2023/09/27 00:05:48;;;;;;;6.30;5.50;;;;;;;;;;5009045;28;20116;-70
2023/09/27 00:08:14;;;;;;;6.28;5.65;;;;;;;;;;4995361;28;20022;-70
2023/09/27 00:10:40;;;;;;;7.88;4.68;;;;;;;;;;5012819;28;20538;-70
2023/09/27 00:13:06;;;;;;;7.15;4.97;;;;;;;;;;5014083;28;20045;-70
2023/09/27 00:15:32;;;;;;;7.32;5.15;;;;;;;;;;5010437;28;20026;-70
2023/09/27 00:17:58;;;;;;;8.77;6.30;;;;;;;;;;5014936;28;20423;-70
2023/09/27 00:20:25;;;;;;;8.38;5.85;;;;;;;;;;5012911;28;20390;-70
2023/09/27 00:22:51;;;;;;;11.70;5.88;;;;;;;;;;5010315;28;20080;-69
2023/09/27 00:25:17;;;;;;;8.45;5.38;;;;;;;;;;5012531;28;20109;-69
2023/09/27 00:27:44;;;;;;;10.27;4.95;;;;;;;;;;5001454;28;20109;-69
2023/09/27 00:30:14;;;;;;;5.93;5.32;;;;;;;;;;4996250;28;20121;-70
2023/09/27 00:32:40;;;;;;;5.75;5.07;;;;;;;;;;5008962;28;20080;-70
2023/09/27 00:35:12;;;;;;;5.10;4.60;;;;;;;;;;5000151;28;20125;-70
2023/09/27 00:37:38;;;;;;;8.10;5.55;;;;;;;;;;4995022;28;20161;-70
2023/09/27 00:40:09;;;;;;;6.00;5.40;;;;;;;;;;4996584;28;20125;-70
2023/09/27 00:42:35;;;;;;;6.53;5.38;;;;;;;;;;5008988;28;20029;-70
2023/09/27 00:45:01;;;;;;;7.60;4.80;;;;;;;;;;5001723;28;20412;-70
2023/09/27 00:47:27;;;;;;;6.32;5.10;;;;;;;;;;5006071;28;20045;-69
2023/09/27 00:49:53;;;;;;;6.15;4.70;;;;;;;;;;4993940;28;20034;-69
2023/09/27 00:52:19;;;;;;;6.93;4.95;;;;;;;;;;5013535;28;20022;-69
2023/09/27 00:54:45;;;;;;;8.20;4.80;;;;;;;;;;5013742;28;20018;-69
2023/09/27 00:57:18;;;;;;;9.57;5.50;;;;;;;;;;5013032;28;20036;-69
2023/09/27 00:59:44;;;;;;;6.70;5.20;;;;;;;;;;5005159;28;20057;-68
2023/09/27 01:02:10;;;;;;;8.10;5.05;;;;;;;;;;4976630;28;20069;-69
2023/09/27 01:04:37;;;;;;;7.38;5.20;;;;;;;;;;4977098;28;20428;-69
2023/09/27 01:07:03;;;;;;;9.02;5.18;;;;;;;;;;5012946;28;20048;-69
2023/09/27 01:09:32;;;;;;;6.30;5.20;;;;;;;;;;5012319;28;20022;-69
2023/09/27 01:11:58;;;;;;;6.10;5.00;;;;;;;;;;4998420;28;20036;-69
2023/09/27 01:14:24;;;;;;;7.38;4.97;;;;;;;;;;4998200;28;20097;-69
2023/09/27 01:16:50;;;;;;;7.20;4.88;;;;;;;;;;4993855;28;20038;-69
2023/09/27 01:19:16;;;;;;;7.82;4.55;;;;;;;;;;4993353;28;20064;-69
2023/09/27 01:21:43;;;;;;;6.72;4.78;;;;;;;;;;4993363;28;20022;-69
2023/09/27 01:24:10;;;;;;;6.32;4.78;;;;;;;;;;5011344;28;20045;-69
2023/09/27 01:26:39;;;;;;;5.32;4.75;;;;;;;;;;4999916;28;20516;-69
2023/09/27 01:29:05;;;;;;;7.60;4.78;;;;;;;;;;4996765;28;20034;-69
2023/09/27 01:31:32;;;;;;;5.50;4.95;;;;;;;;;;5004349;28;20029;-69
2023/09/27 01:33:58;;;;;;;7.38;5.15;;;;;;;;;;5011746;28;20372;-69
2023/09/27 01:36:24;;;;;;;6.03;4.65;;;;;;;;;;5011592;28;20034;-69
2023/09/27 01:38:50;;;;;;;9.23;4.65;;;;;;;;;;5012621;28;20100;-69
2023/09/27 01:41:16;;;;;;;4.95;4.45;;;;;;;;;;4993986;28;20405;-69
2023/09/27 01:43:43;;;;;;;7.57;4.43;;;;;;;;;;4999771;28;20075;-69
2023/09/27 01:46:09;;;;;;;7.70;4.40;;;;;;;;;;5004238;28;20042;-69
2023/09/27 01:48:35;;;;;;;7.75;6.00;;;;;;;;;;5011409;28;20122;-69
2023/09/27 01:51:02;;;;;;;9.52;6.85;;;;;;;;;;5009897;28;20045;-69
2023/09/27 01:53:28;;;;;;;10.23;7.35;;;;;;;;;;5011260;28;20037;-71
2023/09/27 01:55:54;;;;;;;13.73;8.70;;;;;;;;;;5011788;28;20025;-71
2023/09/27 01:58:21;;;;;;;11.88;8.75;;;;;;;;;;4975746;28;20368;-70
2023/09/27 02:00:47;;;;;;;13.82;9.90;;;;;;;;;;4993571;28;20026;-70
2023/09/27 02:03:13;;;;;;;12.85;9.73;;;;;;;;;;4999613;28;20108;-70
2023/09/27 02:05:39;;;;;;;15.88;9.20;;;;;;;;;;4993358;28;20065;-70
2023/09/27 02:08:06;;;;;;;11.70;9.68;;;;;;;;;;4977217;28;20034;-69
2023/09/27 02:10:32;;;;;;;12.63;10.07;;;;;;;;;;5011167;28;20495;-70
2023/09/27 02:12:58;;;;;;;13.43;10.45;;;;;;;;;;5012151;28;20053;-70
2023/09/27 02:15:24;;;;;;;13.95;11.45;;;;;;;;;;4995202;28;20041;-70
2023/09/27 02:17:51;;;;;;;18.63;10.95;;;;;;;;;;4998686;28;20023;-70
2023/09/27 02:20:20;;;;;;;15.20;11.65;;;;;;;;;;4993389;28;20030;-70
2023/09/27 02:22:47;;;;;;;13.85;10.68;;;;;;;;;;4998304;28;20018;-70
2023/09/27 02:25:14;;;;;;;15.40;10.93;;;;;;;;;;5003717;28;20030;-70
2023/09/27 02:27:40;;;;;;;14.10;10.20;;;;;;;;;;4998863;28;20038;-70
2023/09/27 02:30:07;;;;;;;17.08;10.90;;;;;;;;;;5006392;28;20480;-70
2023/09/27 02:32:34;;;;;;;12.90;10.57;;;;;;;;;;5003865;28;20029;-69
2023/09/27 02:35:01;;;;;;;13.45;10.85;;;;;;;;;;5016674;28;20041;-70
2023/09/27 02:37:27;;;;;;;17.42;10.95;;;;;;;;;;4997935;28;20023;-70
2023/09/27 02:39:53;;;;;;;19.58;12.05;;;;;;;;;;4997123;28;20459;-70
2023/09/27 02:42:20;;;;;;;13.85;10.40;;;;;;;;;;4989809;28;20022;-70
2023/09/27 02:44:47;;;;;;;15.20;11.25;;;;;;;;;;5014909;28;20116;-70
2023/09/27 02:47:13;;;;;;;15.93;11.70;;;;;;;;;;5012560;28;20060;-70
2023/09/27 02:49:39;;;;;;;15.43;11.02;;;;;;;;;;5001387;28;20365;-70
2023/09/27 02:52:06;;;;;;;17.08;10.75;;;;;;;;;;4991598;28;20029;-70
2023/09/27 02:54:33;;;;;;;17.88;10.88;;;;;;;;;;5015882;28;20022;-70
2023/09/27 02:56:59;;;;;;;14.32;11.45;;;;;;;;;;5016086;28;20030;-70
2023/09/27 02:59:25;;;;;;;16.35;11.27;;;;;;;;;;5014279;28;20515;-70
2023/09/27 03:01:51;;;;;;;14.77;11.20;;;;;;;;;;5006238;28;20042;-70
2023/09/27 03:04:17;;;;;;;19.70;12.32;;;;;;;;;;4978940;28;20341;-70
2023/09/27 03:06:43;;;;;;;12.75;11.35;;;;;;;;;;4988248;28;20037;-70
2023/09/27 03:09:12;;;;;;;16.35;11.48;;;;;;;;;;5013840;28;20030;-70
2023/09/27 03:11:42;;;;;;;16.05;12.35;;;;;;;;;;5003681;28;20056;-70
2023/09/27 03:14:08;;;;;;;16.63;11.90;;;;;;;;;;5015541;28;20052;-70
2023/09/27 03:16:34;;;;;;;18.90;11.77;;;;;;;;;;5015824;28;20467;-70
2023/09/27 03:19:00;;;;;;;16.63;12.48;;;;;;;;;;5002485;28;20018;-69
2023/09/27 03:21:26;;;;;;;17.23;13.48;;;;;;;;;;5008363;28;20108;-70
2023/09/27 03:23:54;;;;;;;17.50;13.68;;;;;;;;;;5006604;28;20066;-71
2023/09/27 03:26:23;;;;;;;15.20;12.63;;;;;;;;;;5014248;28;20038;-71
2023/09/27 03:28:52;;;;;;;20.60;12.75;;;;;;;;;;5006671;28;20026;-70
2023/09/27 03:31:20;;;;;;;15.52;11.90;;;;;;;;;;4994829;28;20064;-71
2023/09/27 03:33:46;;;;;;;17.25;12.57;;;;;;;;;;4995901;28;20026;-71
2023/09/27 03:36:12;;;;;;;15.43;11.82;;;;;;;;;;4999110;28;20018;-69
2023/09/27 03:38:39;;;;;;;15.05;11.98;;;;;;;;;;5002094;28;20033;-70
2023/09/27 03:41:14;;;;;;;17.25;9.98;;;;;;;;;;5009154;28;20383;-69
2023/09/27 03:43:40;;;;;;;12.73;10.50;;;;;;;;;;4995704;28;20033;-70
2023/09/27 03:46:06;;;;;;;14.43;9.43;;;;;;;;;;4996064;28;20567;-70
2023/09/27 03:48:32;;;;;;;13.40;9.23;;;;;;;;;;5000467;28;20038;-69
2023/09/27 03:50:58;;;;;;;10.50;8.35;;;;;;;;;;4998364;28;20385;-69
2023/09/27 03:53:24;;;;;;;16.67;8.57;;;;;;;;;;5009572;28;20038;-69
2023/09/27 03:55:50;;;;;;;12.48;8.45;;;;;;;;;;5008167;28;20487;-69
2023/09/27 03:58:17;;;;;;;10.52;8.57;;;;;;;;;;5009525;28;20526;-69
2023/09/27 04:00:44;;;;;;;10.98;8.38;;;;;;;;;;5012039;28;20112;-69
2023/09/27 04:03:10;;;;;;;15.98;8.18;;;;;;;;;;5006939;28;20026;-69
2023/09/27 04:05:36;;;;;;;10.40;7.43;;;;;;;;;;5005804;28;20030;-69
2023/09/27 04:08:02;;;;;;;8.75;6.30;;;;;;;;;;5015187;28;20041;-69
2023/09/27 04:10:29;;;;;;;7.10;6.40;;;;;;;;;;5006203;28;20030;-71
2023/09/27 04:12:55;;;;;;;7.22;5.90;;;;;;;;;;4995289;28;20074;-70
2023/09/27 04:15:21;;;;;;;7.88;5.78;;;;;;;;;;4999038;28;20052;-69
2023/09/27 04:17:48;;;;;;;6.85;5.55;;;;;;;;;;4994754;28;20022;-70
2023/09/27 04:20:16;;;;;;;7.93;5.78;;;;;;;;;;5004062;28;20049;-70
2023/09/27 04:22:47;;;;;;;7.53;5.97;;;;;;;;;;5015512;28;20034;-70
2023/09/27 04:25:14;;;;;;;6.90;6.00;;;;;;;;;;5000263;28;20034;-69
2023/09/27 04:27:42;;;;;;;7.57;5.97;;;;;;;;;;4994323;28;20030;-70
2023/09/27 04:30:11;;;;;;;8.18;5.70;;;;;;;;;;4982011;28;20064;-70
2023/09/27 04:32:38;;;;;;;10.93;5.97;;;;;;;;;;4994165;28;20049;-70
2023/09/27 04:35:04;;;;;;;8.68;5.53;;;;;;;;;;5009505;28;20026;-70
2023/09/27 04:37:30;;;;;;;7.03;5.45;;;;;;;;;;4996025;28;20025;-71
2023/09/27 04:39:56;;;;;;;8.70;5.53;;;;;;;;;;5014270;28;20029;-71
2023/09/27 04:42:22;;;;;;;8.63;4.85;;;;;;;;;;5001763;28;20057;-70
2023/09/27 04:44:48;;;;;;;9.00;5.90;;;;;;;;;;5013325;28;20048;-70
2023/09/27 04:47:14;;;;;;;6.10;4.70;;;;;;;;;;4995834;28;20046;-70
2023/09/27 04:49:40;;;;;;;6.53;5.70;;;;;;;;;;4999795;28;20384;-70
2023/09/27 04:52:06;;;;;;;10.18;6.05;;;;;;;;;;5012585;28;20093;-70
2023/09/27 04:54:32;;;;;;;7.65;5.43;;;;;;;;;;5008562;28;20483;-71
2023/09/27 04:56:58;;;;;;;8.60;5.15;;;;;;;;;;4992166;28;20038;-71
2023/09/27 04:59:24;;;;;;;7.43;5.30;;;;;;;;;;5006990;28;20041;-70
2023/09/27 05:01:51;;;;;;;8.15;5.68;;;;;;;;;;4999719;28;20041;-70
2023/09/27 05:04:17;;;;;;;7.32;5.60;;;;;;;;;;5006306;28;20164;-70
2023/09/27 05:06:43;;;;;;;7.93;5.60;;;;;;;;;;5010080;28;20498;-70
2023/09/27 05:09:09;;;;;;;7.90;5.22;;;;;;;;;;5004540;28;20029;-70
2023/09/27 05:11:36;;;;;;;7.57;5.18;;;;;;;;;;5007144;28;20105;-70
2023/09/27 05:14:03;;;;;;;7.60;4.82;;;;;;;;;;5010039;28;20050;-70
2023/09/27 05:16:29;;;;;;;6.93;4.95;;;;;;;;;;5006647;28;20028;-70
2023/09/27 05:18:55;;;;;;;8.15;5.22;;;;;;;;;;4997753;28;20065;-70
2023/09/27 05:21:21;;;;;;;7.22;5.28;;;;;;;;;;4994111;28;20456;-70
2023/09/27 05:23:47;;;;;;;9.13;5.47;;;;;;;;;;5006750;28;20128;-70
2023/09/27 05:26:13;;;;;;;9.40;5.20;;;;;;;;;;5010685;28;20387;-70
2023/09/27 05:28:39;;;;;;;9.25;5.18;;;;;;;;;;5006753;28;20068;-70
2023/09/27 05:31:05;;;;;;;5.70;5.13;;;;;;;;;;5001981;28;20396;-70
2023/09/27 05:33:31;;;;;;;7.78;5.18;;;;;;;;;;4996319;28;20088;-70
2023/09/27 05:35:57;;;;;;;6.65;4.63;;;;;;;;;;4984371;28;20080;-70
2023/09/27 05:38:23;;;;;;;8.02;4.63;;;;;;;;;;5012646;28;20030;-70
2023/09/27 05:40:49;;;;;;;9.70;5.35;;;;;;;;;;5006976;28;20464;-70
2023/09/27 05:43:15;;;;;;;7.97;5.07;;;;;;;;;;5004979;28;20026;-70
2023/09/27 05:45:41;;;;;;;6.43;5.15;;;;;;;;;;5005517;28;20018;-70
2023/09/27 05:48:07;;;;;;;9.50;5.32;;;;;;;;;;5000224;28;20030;-70
2023/09/27 05:50:34;;;;;;;7.07;5.47;;;;;;;;;;5009518;28;20087;-70
2023/09/27 05:53:01;;;;;;;6.47;4.72;;;;;;;;;;5001215;28;20037;-70
2023/09/27 05:55:27;;;;;;;6.60;4.72;;;;;;;;;;5010229;28;20112;-69
2023/09/27 05:57:54;;;;;;;7.75;4.82;;;;;;;;;;5004431;28;20518;-70
2023/09/27 06:00:37;;;;;;;10.50;5.90;;;;;;;;;;5007988;28;20018;-69
2023/09/27 06:03:04;;;;;;;7.25;4.88;;;;;;;;;;5011415;28;20030;-71
2023/09/27 06:05:30;;;;;;;8.85;4.25;;;;;;;;;;5012298;28;20077;-70
2023/09/27 06:07:56;;;;;;;10.88;5.10;;;;;;;;;;5009599;28;20030;-70
2023/09/27 06:10:22;;;;;;;11.55;4.60;;;;;;;;;;5002268;28;20046;-71
2023/09/27 06:12:48;;;;;;;10.52;5.13;;;;;;;;;;5004814;28;20046;-71
2023/09/27 06:15:15;;;;;;;7.18;4.70;;;;;;;;;;4998653;28;20033;-71
2023/09/27 06:17:43;;;;;;;6.63;4.90;;;;;;;;;;5006905;28;20149;-70
2023/09/27 06:20:19;;;;;;;6.45;4.63;;;;;;;;;;5011397;28;20391;-71
2023/09/27 06:22:48;;;;;;;8.57;5.10;;;;;;;;;;4987498;28;20032;-69
2023/09/27 06:25:14;;;;;;;11.60;5.63;;;;;;;;;;5005119;28;20426;-69
2023/09/27 06:27:40;;;;;;;11.50;5.55;;;;;;;;;;5002171;28;20065;-70
2023/09/27 06:30:07;;;;;;;7.32;5.57;;;;;;;;;;5007629;28;20170;-72
2023/09/27 06:32:35;;;;;;;6.55;5.05;;;;;;;;;;5003875;28;20030;-72
2023/09/27 06:35:01;;;;;;;10.35;6.20;;;;;;;;;;4993341;28;20415;-72
2023/09/27 06:37:28;;;;;;;8.45;5.20;;;;;;;;;;4993325;28;20109;-73
2023/09/27 06:39:54;;;;;;;8.70;5.38;;;;;;;;;;4993166;28;20468;-72
2023/09/27 06:42:21;;;;;;;9.40;5.63;;;;;;;;;;5012848;28;20026;-72
2023/09/27 06:44:47;;;;;;;10.55;5.53;;;;;;;;;;5012686;28;20113;-72
2023/09/27 06:47:19;;;;;;;8.52;5.70;;;;;;;;;;5012749;28;20535;-72
2023/09/27 06:49:45;;;;;;;11.30;5.82;;;;;;;;;;4998807;28;20034;-73
2023/09/27 06:52:11;;;;;;;10.57;6.15;;;;;;;;;;5006647;28;20034;-73
2023/09/27 06:54:37;;;;;;;9.07;6.20;;;;;;;;;;5012232;28;20383;-73
2023/09/27 06:57:03;;;;;;;10.25;5.90;;;;;;;;;;5010917;28;20060;-73
2023/09/27 06:59:31;;;;;;;9.50;6.05;;;;;;;;;;5012036;28;20022;-73
2023/09/27 07:01:57;;;;;;;8.32;6.25;;;;;;;;;;5009509;28;20026;-72
2023/09/27 07:04:23;;;;;;;15.45;6.70;;;;;;;;;;5011489;28;20030;-72
2023/09/27 07:06:49;;;;;;;11.73;7.00;;;;;;;;;;4994187;28;20073;-72
2023/09/27 07:09:16;;;;;;;10.02;6.78;;;;;;;;;;5011825;28;20022;-73
2023/09/27 07:11:44;;;;;;;11.38;6.70;;;;;;;;;;5011924;28;20030;-72
2023/09/27 07:14:22;;;;;;;13.50;7.15;;;;;;;;;;5015165;28;20050;-72
2023/09/27 07:16:48;;;;;;;9.57;6.60;;;;;;;;;;5016104;28;20380;-72
2023/09/27 07:19:15;;;;;;;11.95;7.35;;;;;;;;;;5015866;28;20022;-72
2023/09/27 07:21:41;;;;;;;13.68;8.38;;;;;;;;;;5015094;28;20387;-72
2023/09/27 07:24:09;;;;;;;13.15;7.65;;;;;;;;;;5013648;28;20030;-72
2023/09/27 07:26:35;;;;;;;12.98;8.13;;;;;;;;;;5015443;28;20041;-73
2023/09/27 07:29:01;;;;;;;9.40;7.22;;;;;;;;;;5015304;28;20518;-73
2023/09/27 07:31:29;;;;;;;13.82;7.35;;;;;;;;;;5014805;28;20030;-73
2023/09/27 07:33:56;;;;;;;15.68;7.60;;;;;;;;;;5013941;28;20523;-73
2023/09/27 07:36:24;;;;;;;12.27;6.82;;;;;;;;;;5009728;28;20028;-75
2023/09/27 07:38:58;;;;;;;20.40;8.40;;;;;;;;;;5010489;28;20049;-69
2023/09/27 07:41:24;;;;;;;10.43;7.25;;;;;;;;;;5009933;28;20067;-84
2023/09/27 07:43:50;;;;;;;9.55;7.47;;;;;;;;;;5014216;28;20030;-63
2023/09/27 07:46:17;;;;;;;12.98;7.70;;;;;;;;;;5014843;28;20040;-71
2023/09/27 07:48:43;;;;;;;13.70;8.55;;;;;;;;;;5006924;28;20030;-68
2023/09/27 07:51:21;;;;;;;13.43;8.75;;;;;;;;;;5015018;28;20029;-68
2023/09/27 07:53:47;;;;;;;14.18;8.50;;;;;;;;;;5014380;28;20324;-70
2023/09/27 07:56:20;;;;;;;16.55;8.32;;;;;;;;;;5003545;28;20027;-67
2023/09/27 07:58:49;;;;;;;15.20;8.35;;;;;;;;;;4998859;28;20551;-70
2023/09/27 08:01:20;;;;;;;14.98;8.60;;;;;;;;;;5002881;28;20026;-63
2023/09/27 08:03:46;;;;;;;13.40;8.32;;;;;;;;;;5012015;28;20025;-66
2023/09/27 08:06:12;;;;;;;13.43;8.75;;;;;;;;;;5003852;28;20080;-69
2023/09/27 08:08:39;;;;;;;20.52;9.18;;;;;;;;;;4996871;28;20022;-68
2023/09/27 08:11:05;;;;;;;13.18;8.02;;;;;;;;;;4998370;28;20357;-60
2023/09/27 08:13:31;;;;;;;18.27;9.20;;;;;;;;;;4994661;28;20054;-62
2023/09/27 08:15:58;;;;;;;13.32;8.40;;;;;;;;;;5003108;28;20042;-63
2023/09/27 08:18:25;;;;;;;13.48;8.50;;;;;;;;;;5002859;28;20491;-62
2023/09/27 08:20:54;;;;;;;15.18;9.15;;;;;;;;;;5006434;28;20053;-62
2023/09/27 08:23:20;;;;;;;14.40;9.00;;;;;;;;;;5007307;28;20033;-63
2023/09/27 08:25:45;;;;;;;16.50;9.65;;;;;;;;;;5004390;28;20023;-63
2023/09/27 08:28:12;;;;;;;17.00;9.45;;;;;;;;;;5000839;28;20030;-70
2023/09/27 08:30:38;;;;;;;17.58;10.18;;;;;;;;;;4997556;28;20015;-66
2023/09/27 08:33:04;;;;;;;13.75;8.82;;;;;;;;;;4991011;28;20040;-68
2023/09/27 08:35:30;;;;;;;14.63;9.80;;;;;;;;;;5004273;28;20380;-66
2023/09/27 08:37:56;;;;;;;11.40;9.18;;;;;;;;;;4997246;28;20027;-73
2023/09/27 08:40:22;;;;;;;16.58;9.75;;;;;;;;;;5009410;28;20068;-72
2023/09/27 08:42:52;;;;;;;15.60;9.82;;;;;;;;;;4993582;28;20050;-69
2023/09/27 08:45:22;;;;;;;17.52;10.60;;;;;;;;;;5007480;28;20773;-70
2023/09/27 08:47:48;;;;;;;16.27;9.10;;;;;;;;;;5007074;28;20034;-66
2023/09/27 08:50:14;;;;;;;14.00;8.60;;;;;;;;;;4995169;28;20073;-69
2023/09/27 08:52:45;;;;;;;11.30;7.78;;;;;;;;;;5008880;28;20036;-68
2023/09/27 08:55:12;;;;;;;12.80;7.30;;;;;;;;;;5007801;28;20127;-69
2023/09/27 08:57:39;;;;;;;14.27;8.23;;;;;;;;;;5011031;28;20132;-66
2023/09/27 09:00:13;;;;;;;12.63;7.70;;;;;;;;;;5003090;28;20022;-66
2023/09/27 09:02:40;;;;;;;17.88;7.97;;;;;;;;;;5006125;28;20495;-64
2023/09/27 09:05:07;;;;;;;12.27;7.25;;;;;;;;;;5005375;28;20071;-62
2023/09/27 09:07:33;;;;;;;10.32;7.65;;;;;;;;;;5005786;28;20041;-70
2023/09/27 09:09:59;;;;;;;8.82;7.03;;;;;;;;;;5007589;28;20033;-64
2023/09/27 09:12:26;;;;;;;11.50;7.10;;;;;;;;;;5008828;28;20041;-65
2023/09/27 09:14:54;;;;;;;9.95;6.22;;;;;;;;;;5001379;28;20077;-67
2023/09/27 09:17:25;;;;;;;11.82;7.75;;;;;;;;;;5005880;28;20121;-67
2023/09/27 09:20:15;;;;;;;11.93;6.60;;;;;;;;;;5004437;28;20029;-68
2023/09/27 09:22:45;;;;;;;9.80;6.45;;;;;;;;;;5005148;28;20036;-62
2023/09/27 09:25:11;;;;;;;11.98;7.35;;;;;;;;;;5001163;28;20022;-64
2023/09/27 09:27:37;;;;;;;12.85;6.47;;;;;;;;;;5010640;28;20050;-66
2023/09/27 09:30:06;;;;;;;14.10;8.07;;;;;;;;;;5008230;28;20026;-65
2023/09/27 09:32:33;;;;;;;9.63;6.63;;;;;;;;;;5005586;28;20060;-66
2023/09/27 09:35:00;;;;;;;12.63;7.68;;;;;;;;;;4996998;28;20026;-70
2023/09/27 09:37:28;;;;;;;11.20;7.03;;;;;;;;;;5008954;28;20033;-67
2023/09/27 09:40:07;;;;;;;13.05;6.70;;;;;;;;;;5006517;28;20074;-67
2023/09/27 09:42:36;;;;;;;11.50;7.55;;;;;;;;;;5011434;28;20560;-72
2023/09/27 09:45:12;;;;;;;12.27;6.30;;;;;;;;;;5003115;28;20030;-67
2023/09/27 09:47:39;;;;;;;11.10;6.90;;;;;;;;;;5000052;28;20034;-61
2023/09/27 09:50:06;;;;;;;10.45;6.68;;;;;;;;;;5012004;28;20049;-65
2023/09/27 09:52:35;;;;;;;11.73;7.03;;;;;;;;;;5000797;28;20121;-66
2023/09/27 09:55:07;;;;;;;11.55;7.03;;;;;;;;;;5000418;28;20371;-67
2023/09/27 09:57:36;;;;;;;11.45;7.20;;;;;;;;;;5006957;28;20029;-67
2023/09/27 10:00:30;;;;;;;10.57;7.80;;;;;;;;;;4999889;28;20041;-69
2023/09/27 10:03:00;;;;;;;11.90;7.07;;;;;;;;;;5006575;28;20044;-65
2023/09/27 10:05:28;;;;;;;11.15;6.35;;;;;;;;;;5011686;28;20036;-60
2023/09/27 10:07:54;;;;;;;11.90;6.82;;;;;;;;;;5004379;28;20035;-69
2023/09/27 10:10:22;;;;;;;9.23;6.95;;;;;;;;;;5003581;28;20026;-68
2023/09/27 10:12:49;;;;;;;12.52;8.77;;;;;;;;;;5003231;28;20022;-68
2023/09/27 10:15:22;;;;;;;15.15;8.43;;;;;;;;;;5006245;28;20029;-69
2023/09/27 10:17:48;;;;;;;13.60;7.73;;;;;;;;;;5001132;28;20026;-73
2023/09/27 10:20:17;;;;;;;14.57;8.07;;;;;;;;;;4993808;28;20387;-72
2023/09/27 10:22:46;;;;;;;11.50;7.47;;;;;;;;;;5004611;28;20168;-67
2023/09/27 10:25:27;;;;;;;9.20;6.60;;;;;;;;;;5005342;28;20025;-59
2023/09/27 10:27:59;;;;;;;9.65;6.88;;;;;;;;;;5004831;28;20041;-63
2023/09/27 10:30:26;;;;;;;9.55;6.47;;;;;;;;;;4991834;28;20030;-73
2023/09/27 10:33:10;;;;;;;13.27;8.63;;;;;;;;;;5008273;28;20483;-73
2023/09/27 10:35:36;;;;;;;;;;;;;;;;;;4998068;28;20037;-65
2023/09/27 10:38:08;;;;;;;12.98;7.32;;;;;;;;;;5006445;28;19914;-62
2023/09/27 10:40:45;;;;;;;10.05;6.90;;;;;;;;;;4989096;28;20065;-61
2023/09/27 10:43:31;;;;;;;16.15;7.07;;;;;;;;;;5002604;28;20072;-61
2023/09/27 10:45:57;;;;;;;9.20;6.05;;;;;;;;;;5002010;28;21181;-61
2023/09/27 10:48:24;;;;;;;8.40;6.47;;;;;;;;;;5008757;28;20038;-61
2023/09/27 10:50:58;;;;;;;11.40;6.88;;;;;;;;;;5013177;28;20022;-61
2023/09/27 10:53:24;;;;;;;12.57;6.93;;;;;;;;;;5015666;28;20378;-61
2023/09/27 10:55:50;;;;;;;11.00;5.88;;;;;;;;;;5015903;28;20376;-61
2023/09/27 10:58:17;;;;;;;11.35;6.32;;;;;;;;;;5015519;28;20026;-61
2023/09/27 11:00:51;;;;;;;10.80;6.40;;;;;;;;;;5014766;28;20030;-61
2023/09/27 11:03:18;;;;;;;9.35;4.68;;;;;;;;;;5015886;28;20022;-61
2023/09/27 11:05:44;;;;;;;8.23;5.30;;;;;;;;;;5013222;28;20033;-61
2023/09/27 11:08:10;;;;;;;6.68;4.85;;;;;;;;;;5023683;28;20031;-61
2023/09/27 11:10:36;;;;;;;11.90;6.20;;;;;;;;;;5026390;28;20018;-60
2023/09/27 11:13:10;;;;;;;8.98;5.43;;;;;;;;;;5012712;28;20033;-61
2023/09/27 11:15:36;;;;;;;12.88;5.32;;;;;;;;;;5014139;28;20026;-61
2023/09/27 11:18:04;;;;;;;8.77;5.43;;;;;;;;;;5034429;28;20120;-61
2023/09/27 11:20:30;;;;;;;9.05;5.72;;;;;;;;;;5032217;28;20053;-60
2023/09/27 11:22:56;;;;;;;11.05;5.18;;;;;;;;;;5011084;28;20369;-60
2023/09/27 11:25:29;;;;;;;7.88;5.70;;;;;;;;;;5014799;28;20030;-61
2023/09/27 11:27:55;;;;;;;11.30;6.40;;;;;;;;;;5013160;28;20109;-60
2023/09/27 11:30:26;;;;;;;9.02;5.95;;;;;;;;;;5013201;28;20022;-61
2023/09/27 11:32:52;;;;;;;8.88;6.03;;;;;;;;;;5013579;28;20058;-60
2023/09/27 11:35:21;;;;;;;6.45;5.47;;;;;;;;;;5013431;28;20029;-60
2023/09/27 11:37:48;;;;;;;8.15;5.25;;;;;;;;;;5014665;28;20048;-61
2023/09/27 11:40:14;;;;;;;9.70;6.07;;;;;;;;;;5014376;28;20022;-61
2023/09/27 11:42:40;;;;;;;13.57;5.93;;;;;;;;;;5000218;28;20498;-60
2023/09/27 11:45:08;;;;;;;8.57;5.30;;;;;;;;;;5014051;28;20034;-61
2023/09/27 11:47:50;;;;;;;9.60;5.10;;;;;;;;;;4995399;28;20038;-61
2023/09/27 11:50:17;;;;;;;10.35;5.80;;;;;;;;;;5032589;28;20091;-61
2023/09/27 11:52:43;;;;;;;7.95;5.30;;;;;;;;;;5034480;28;20039;-61
2023/09/27 11:55:10;;;;;;;9.65;4.53;;;;;;;;;;5034479;28;20025;-61
2023/09/27 11:57:36;;;;;;;11.13;5.60;;;;;;;;;;5013467;28;20034;-61
2023/09/27 12:00:05;;;;;;;10.10;5.85;;;;;;;;;;5014774;28;20024;-61
2023/09/27 12:02:33;;;;;;;7.43;6.15;;;;;;;;;;5013334;28;20038;-61
2023/09/27 12:04:59;;;;;;;12.65;6.63;;;;;;;;;;5014924;28;20397;-61
2023/09/27 12:07:25;;;;;;;8.25;6.28;;;;;;;;;;5014320;28;20045;-61
2023/09/27 12:09:51;;;;;;;6.05;4.40;;;;;;;;;;5012954;28;20053;-61
2023/09/27 12:12:17;;;;;;;8.02;5.97;;;;;;;;;;5014270;28;20466;-61
2023/09/27 12:14:43;;;;;;;12.68;5.53;;;;;;;;;;5011791;28;20163;-61
2023/09/27 12:17:09;;;;;;;8.07;5.38;;;;;;;;;;5020318;28;20430;-61
2023/09/27 12:19:35;;;;;;;9.95;4.97;;;;;;;;;;5033962;28;20022;-61
2023/09/27 12:22:03;;;;;;;7.13;5.35;;;;;;;;;;5016044;28;20502;-61
2023/09/27 12:24:29;;;;;;;6.43;4.72;;;;;;;;;;5021941;28;20087;-61
2023/09/27 12:26:55;;;;;;;9.35;5.38;;;;;;;;;;5013794;28;20030;-61
2023/09/27 12:29:21;;;;;;;8.88;5.50;;;;;;;;;;5012778;28;20029;-61
2023/09/27 12:31:47;;;;;;;8.43;5.05;;;;;;;;;;4992425;28;20042;-61
2023/09/27 12:34:14;;;;;;;10.02;5.35;;;;;;;;;;5011216;28;20022;-62
2023/09/27 12:36:40;;;;;;;7.13;4.95;;;;;;;;;;5010211;28;20049;-62
2023/09/27 12:39:06;;;;;;;11.73;5.82;;;;;;;;;;5005154;28;20058;-60
2023/09/27 12:41:32;;;;;;;7.60;5.57;;;;;;;;;;5008026;28;20503;-64
2023/09/27 12:43:58;;;;;;;11.13;5.57;;;;;;;;;;4993933;28;20029;-64
2023/09/27 12:46:24;;;;;;;8.43;5.40;;;;;;;;;;5009374;28;20034;-65
2023/09/27 12:48:50;;;;;;;7.47;5.43;;;;;;;;;;5011733;28;20383;-64
2023/09/27 12:51:16;;;;;;;7.63;5.72;;;;;;;;;;5013201;28;20025;-68
2023/09/27 12:53:43;;;;;;;9.73;6.28;;;;;;;;;;5006202;28;20023;-67
2023/09/27 12:56:09;;;;;;;7.20;5.10;;;;;;;;;;5000705;28;20038;-76
2023/09/27 12:58:35;;;;;;;8.43;5.30;;;;;;;;;;5013565;28;20215;-73
2023/09/27 13:01:01;;;;;;;8.18;5.07;;;;;;;;;;5007911;28;20495;-74
2023/09/27 13:03:28;;;;;;;10.63;7.03;;;;;;;;;;5008288;28;20021;-74
2023/09/27 13:05:54;;;;;;;5.82;5.10;;;;;;;;;;5006206;28;20109;-67
2023/09/27 13:08:20;;;;;;;9.05;5.55;;;;;;;;;;5008874;28;20042;-64
2023/09/27 13:10:46;;;;;;;6.18;5.10;;;;;;;;;;5005410;28;20087;-68
2023/09/27 13:13:12;;;;;;;6.75;4.72;;;;;;;;;;5004682;28;20050;-66
2023/09/27 13:15:38;;;;;;;8.70;5.50;;;;;;;;;;4999687;28;20088;-66
2023/09/27 13:18:06;;;;;;;8.15;5.32;;;;;;;;;;5007304;28;20046;-68
2023/09/27 13:20:33;;;;;;;6.30;5.00;;;;;;;;;;4996351;28;20069;-66
2023/09/27 13:22:59;;;;;;;7.18;5.32;;;;;;;;;;5006436;28;20029;-68
2023/09/27 13:25:25;;;;;;;7.05;4.93;;;;;;;;;;5004628;28;20030;-67
2023/09/27 13:27:51;;;;;;;10.25;5.18;;;;;;;;;;4989627;28;20522;-67
2023/09/27 13:30:17;;;;;;;8.02;4.88;;;;;;;;;;5002096;28;20026;-68
2023/09/27 13:32:43;;;;;;;7.22;5.28;;;;;;;;;;5005399;28;20029;-66
2023/09/27 13:35:09;;;;;;;11.15;5.65;;;;;;;;;;5006392;28;20026;-66
2023/09/27 13:37:35;;;;;;;8.57;5.45;;;;;;;;;;5000786;28;20121;-63
2023/09/27 13:40:04;;;;;;;8.95;6.43;;;;;;;;;;5009233;28;20085;-66
2023/09/27 13:42:30;;;;;;;11.10;6.03;;;;;;;;;;5011873;28;20375;-72
2023/09/27 13:44:56;;;;;;;12.10;6.53;;;;;;;;;;5000233;28;20054;-68
2023/09/27 13:47:22;;;;;;;6.93;5.50;;;;;;;;;;5004987;28;20480;-61
2023/09/27 13:49:49;;;;;;;9.35;5.53;;;;;;;;;;5009865;28;20056;-69
2023/09/27 13:52:15;;;;;;;8.60;5.40;;;;;;;;;;4989717;28;20143;-68
2023/09/27 13:54:41;;;;;;;6.63;5.85;;;;;;;;;;5007579;28;20022;-60
2023/09/27 13:57:07;;;;;;;10.63;5.80;;;;;;;;;;5006061;28;20518;-63
2023/09/27 13:59:34;;;;;;;6.50;5.90;;;;;;;;;;5005229;28;20195;-62
2023/09/27 14:02:00;;;;;;;8.65;6.45;;;;;;;;;;5004873;28;20084;-60
2023/09/27 14:04:27;;;;;;;8.52;6.22;;;;;;;;;;5005978;28;20108;-70
2023/09/27 14:06:54;;;;;;;9.50;6.03;;;;;;;;;;5010276;28;20066;-66
2023/09/27 14:09:20;;;;;;;8.95;6.97;;;;;;;;;;5008869;28;20110;-60
2023/09/27 14:11:46;;;;;;;10.27;5.57;;;;;;;;;;5004451;28;20117;-62
2023/09/27 14:14:13;;;;;;;8.25;6.07;;;;;;;;;;5009125;28;20069;-64
2023/09/27 14:16:39;;;;;;;8.82;6.35;;;;;;;;;;4991869;28;20030;-63
2023/09/27 14:19:05;;;;;;;15.90;6.47;;;;;;;;;;5016646;28;20026;-64
2023/09/27 14:21:32;;;;;;;6.85;6.15;;;;;;;;;;5004642;28;20031;-67
2023/09/27 14:23:58;;;;;;;6.82;6.10;;;;;;;;;;5008497;28;20483;-65
2023/09/27 14:26:25;;;;;;;9.48;6.47;;;;;;;;;;5008755;28;20026;-73
2023/09/27 14:28:51;;;;;;;8.43;6.68;;;;;;;;;;4990938;28;20030;-73
2023/09/27 14:31:17;;;;;;;11.65;5.90;;;;;;;;;;5014763;28;20033;-67
2023/09/27 14:33:43;;;;;;;10.70;6.40;;;;;;;;;;5015061;28;20108;-67
2023/09/27 14:36:09;;;;;;;8.40;6.10;;;;;;;;;;5010867;28;20046;-68